Time;durP1;ratioP1;P1;durP2;ratioP2;P2;SDS_P1;SDS_P2;PMS_P1;PMS_P2;Temp;Humidity;BMP_temperature;BMP_pressure;BME280_temperature;BME280_humidity;BME280_pressure;Samples;Min_cycle;Max_cycle;Signal;HPM_P1;HPM_P2
2023/05/27 00:00:23;;;;;;;;;;;;;;;;;;5091100;28;1026;-68
2023/05/27 00:02:48;;;;;;;;;;;;;;;;;;5091286;28;848;-68
2023/05/27 00:05:13;;;;;;;;;;;;;;;;;;5091905;28;840;-68
2023/05/27 00:07:39;;;;;;;;;;;;;;;;;;5091933;28;1914;-68
2023/05/27 00:10:05;;;;;;;;;;;;;;;;;;5055950;28;1239;-68
2023/05/27 00:12:30;;;;;;;;;;;;;;;;;;5091914;28;888;-68
2023/05/27 00:14:55;;;;;;;;;;;;;;;;;;5091141;28;918;-68
2023/05/27 00:17:21;;;;;;;;;;;;;;;;;;5090932;28;885;-68
2023/05/27 00:19:47;;;;;;;;;;;;;;;;;;5072888;28;1111;-68
2023/05/27 00:22:13;;;;;;;;;;;;;;;;;;5073085;28;991;-68
2023/05/27 00:24:39;;;;;;;;;;;;;;;;;;5090915;28;1045;-68
2023/05/27 00:27:08;;;;;;;;;;;;;;;;;;5091334;28;1906;-68
2023/05/27 00:29:33;;;;;;;;;;;;;;;;;;5092018;28;1038;-67
2023/05/27 00:32:02;;;;;;;;;;;;;;;;;;5091161;28;765;-68
2023/05/27 00:34:28;;;;;;;;;;;;;;;;;;5094269;28;785;-68
2023/05/27 00:36:53;;;;;;;;;;;;;;;;;;5077872;28;882;-68
2023/05/27 00:39:18;;;;;;;;;;;;;;;;;;5095874;28;971;-68
2023/05/27 00:41:48;;;;;;;;;;;;;;;;;;5095719;28;1034;-68
2023/05/27 00:44:13;;;;;;;;;;;;;;;;;;5095436;28;866;-68
2023/05/27 00:46:38;;;;;;;;;;;;;;;;;;5095557;28;1906;-68
2023/05/27 00:49:03;;;;;;;;;;;;;;;;;;5076883;28;1443;-68
2023/05/27 00:51:29;;;;;;;;;;;;;;;;;;5095675;28;1227;-68
2023/05/27 00:53:54;;;;;;;;;;;;;;;;;;5076948;28;970;-68
2023/05/27 00:56:21;;;;;;;;;;;;;;;;;;5094746;28;912;-68
2023/05/27 00:58:46;;;;;;;;;;;;;;;;;;5076676;28;1113;-68
2023/05/27 01:01:12;;;;;;;;;;;;;;;;;;5094742;28;947;-68
2023/05/27 01:03:38;;;;;;;;;;;;;;;;;;5095200;28;887;-68
2023/05/27 01:06:04;;;;;;;;;;;;;;;;;;5059946;28;1236;-68
2023/05/27 01:08:54;;;;;;;;;;;;;;;;;;5094495;28;1910;-68
2023/05/27 01:11:23;;;;;;;;;;;;;;;;;;5094211;28;840;-68
2023/05/27 01:13:55;;;;;;;;;;;;;;;;;;5094702;28;840;-68
2023/05/27 01:16:21;;;;;;;;;;;;;;;;;;5094289;28;915;-68
2023/05/27 01:18:48;;;;;;;;;;;;;;;;;;5094655;28;986;-68
2023/05/27 01:21:14;;;;;;;;;;;;;;;;;;5094718;28;860;-68
2023/05/27 01:23:43;;;;;;;;;;;;;;;;;;5094514;28;908;-68
2023/05/27 01:26:08;;;;;;;;;;;;;;;;;;5093827;28;891;-67
2023/05/27 01:28:34;;;;;;;;;;;;;;;;;;5059322;28;1975;-68
2023/05/27 01:31:10;;;;;;;;;;;;;;;;;;5075970;28;853;-68
2023/05/27 01:33:37;;;;;;;;;;;;;;;;;;5094230;28;853;-67
2023/05/27 01:36:07;;;;;;;;;;;;;;;;;;5075632;28;1039;-67
2023/05/27 01:38:33;;;;;;;;;;;;;;;;;;5094314;28;951;-67
2023/05/27 01:40:59;;;;;;;;;;;;;;;;;;5093897;28;916;-67
2023/05/27 01:43:25;;;;;;;;;;;;;;;;;;5093869;28;829;-67
2023/05/27 01:45:51;;;;;;;;;;;;;;;;;;5059296;28;1465;-67
2023/05/27 01:48:16;;;;;;;;;;;;;;;;;;5075226;28;1890;-67
2023/05/27 01:50:41;;;;;;;;;;;;;;;;;;5075969;28;963;-67
2023/05/27 01:53:07;;;;;;;;;;;;;;;;;;5054751;28;1382;-67
2023/05/27 01:55:32;;;;;;;;;;;;;;;;;;5052570;28;1326;-67
2023/05/27 01:57:57;;;;;;;;;;;;;;;;;;5035912;28;810;-67
2023/05/27 02:00:24;;;;;;;;;;;;;;;;;;5048682;28;1192;-67
2023/05/27 02:02:49;;;;;;;;;;;;;;;;;;5030430;28;1200;-67
2023/05/27 02:05:14;;;;;;;;;;;;;;;;;;5015301;28;1342;-67
2023/05/27 02:07:40;;;;;;;;;;;;;;;;;;5033956;28;1961;-67
2023/05/27 02:10:05;;;;;;;;;;;;;;;;;;5032431;28;864;-67
2023/05/27 02:12:31;;;;;;;;;;;;;;;;;;5032699;28;1220;-67
2023/05/27 02:14:56;;;;;;;;;;;;;;;;;;5032874;28;1284;-67
2023/05/27 02:17:24;;;;;;;;;;;;;;;;;;5033450;28;897;-67
2023/05/27 02:19:50;;;;;;;;;;;;;;;;;;5033647;28;875;-68
2023/05/27 02:22:15;;;;;;;;;;;;;;;;;;5033288;28;891;-67
2023/05/27 02:24:40;;;;;;;;;;;;;;;;;;5031950;28;1354;-67
2023/05/27 02:27:06;;;;;;;;;;;;;;;;;;5031579;28;1898;-67
2023/05/27 02:29:31;;;;;;;;;;;;;;;;;;5033576;28;813;-67
2023/05/27 02:31:56;;;;;;;;;;;;;;;;;;5033295;28;778;-67
2023/05/27 02:34:22;;;;;;;;;;;;;;;;;;5033045;28;853;-67
2023/05/27 02:36:47;;;;;;;;;;;;;;;;;;5031721;28;1464;-67
2023/05/27 02:39:12;;;;;;;;;;;;;;;;;;5031325;28;986;-67
2023/05/27 02:41:38;;;;;;;;;;;;;;;;;;5031675;28;825;-67
2023/05/27 02:44:04;;;;;;;;;;;;;;;;;;5032651;28;900;-67
2023/05/27 02:46:30;;;;;;;;;;;;;;;;;;5031408;28;841;-68
2023/05/27 02:48:55;;;;;;;;;;;;;;;;;;5032417;28;1963;-68
2023/05/27 02:51:21;;;;;;;;;;;;;;;;;;5018711;28;1255;-67
2023/05/27 02:53:46;;;;;;;;;;;;;;;;;;5072625;28;860;-68
2023/05/27 02:56:11;;;;;;;;;;;;;;;;;;5037320;28;1424;-68
2023/05/27 02:58:37;;;;;;;;;;;;;;;;;;5037771;28;1155;-67
2023/05/27 03:01:02;;;;;;;;;;;;;;;;;;5072472;28;963;-68
2023/05/27 03:03:27;;;;;;;;;;;;;;;;;;5071718;28;853;-67
2023/05/27 03:05:53;;;;;;;;;;;;;;;;;;5053968;28;1161;-68
2023/05/27 03:08:18;;;;;;;;;;;;;;;;;;5071749;28;1901;-67
2023/05/27 03:10:43;;;;;;;;;;;;;;;;;;5037592;28;1396;-66
2023/05/27 03:13:08;;;;;;;;;;;;;;;;;;5037254;28;1317;-67
2023/05/27 03:15:35;;;;;;;;;;;;;;;;;;5071998;28;900;-67
2023/05/27 03:18:01;;;;;;;;;;;;;;;;;;5071733;28;888;-67
2023/05/27 03:20:27;;;;;;;;;;;;;;;;;;5072112;28;892;-67
2023/05/27 03:22:52;;;;;;;;;;;;;;;;;;5072239;28;887;-66
2023/05/27 03:25:17;;;;;;;;;;;;;;;;;;5053566;28;857;-67
2023/05/27 03:27:43;;;;;;;;;;;;;;;;;;5071912;28;1915;-67
2023/05/27 03:30:08;;;;;;;;;;;;;;;;;;5053687;28;1109;-67
2023/05/27 03:32:33;;;;;;;;;;;;;;;;;;5036925;28;1201;-67
2023/05/27 03:34:59;;;;;;;;;;;;;;;;;;5054275;28;1321;-67
2023/05/27 03:37:25;;;;;;;;;;;;;;;;;;5072292;28;845;-67
2023/05/27 03:39:50;;;;;;;;;;;;;;;;;;5072390;28;1047;-67
2023/05/27 03:42:15;;;;;;;;;;;;;;;;;;5053771;28;1226;-67
2023/05/27 03:44:41;;;;;;;;;;;;;;;;;;5072447;28;901;-67
2023/05/27 03:47:06;;;;;;;;;;;;;;;;;;5054389;28;1963;-66
2023/05/27 03:49:31;;;;;;;;;;;;;;;;;;5071830;28;856;-67
2023/05/27 03:51:56;;;;;;;;;;;;;;;;;;5071742;28;1177;-67
2023/05/27 03:54:22;;;;;;;;;;;;;;;;;;5053933;28;1026;-67
2023/05/27 03:56:47;;;;;;;;;;;;;;;;;;5072086;28;951;-67
2023/05/27 03:59:13;;;;;;;;;;;;;;;;;;5054313;28;944;-66
2023/05/27 04:01:38;;;;;;;;;;;;;;;;;;5037674;28;1558;-67
2023/05/27 04:04:03;;;;;;;;;;;;;;;;;;5071341;28;812;-66
2023/05/27 04:06:29;;;;;;;;;;;;;;;;;;5071566;28;927;-67
2023/05/27 04:08:55;;;;;;;;;;;;;;;;;;5052410;28;1902;-67
2023/05/27 04:11:20;;;;;;;;;;;;;;;;;;5053171;28;908;-66
2023/05/27 04:13:46;;;;;;;;;;;;;;;;;;5071594;28;856;-66
2023/05/27 04:16:12;;;;;;;;;;;;;;;;;;5070899;28;873;-66
2023/05/27 04:18:37;;;;;;;;;;;;;;;;;;5071410;28;840;-66
2023/05/27 04:21:04;;;;;;;;;;;;;;;;;;5053273;28;1553;-66
2023/05/27 04:23:29;;;;;;;;;;;;;;;;;;5070861;28;1052;-67
2023/05/27 04:25:54;;;;;;;;;;;;;;;;;;5053055;28;1112;-66
2023/05/27 04:28:20;;;;;;;;;;;;;;;;;;5070767;28;1934;-67
2023/05/27 04:30:47;;;;;;;;;;;;;;;;;;5071007;28;1278;-66
2023/05/27 04:33:14;;;;;;;;;;;;;;;;;;5053141;28;1215;-67
2023/05/27 04:35:43;;;;;;;;;;;;;;;;;;5071003;28;947;-66
2023/05/27 04:38:10;;;;;;;;;;;;;;;;;;5053535;28;929;-66
2023/05/27 04:40:35;;;;;;;;;;;;;;;;;;5052521;28;1572;-67
2023/05/27 04:43:01;;;;;;;;;;;;;;;;;;5071236;28;848;-66
2023/05/27 04:45:26;;;;;;;;;;;;;;;;;;5052578;28;1427;-67
2023/05/27 04:47:52;;;;;;;;;;;;;;;;;;5070696;28;1977;-67
2023/05/27 04:50:17;;;;;;;;;;;;;;;;;;5070160;28;837;-66
2023/05/27 04:52:42;;;;;;;;;;;;;;;;;;5035749;28;1283;-66
2023/05/27 04:55:09;;;;;;;;;;;;;;;;;;5030765;28;1011;-66
2023/05/27 04:57:35;;;;;;;;;;;;;;;;;;5028956;28;1164;-67
2023/05/27 05:02:36;;;;;;;;;;;;;;;;;;5030712;28;813;-66
2023/05/27 05:05:02;;;;;;;;;;;;;;;;;;5029928;28;868;-66
2023/05/27 05:07:27;;;;;;;;;;;;;;;;;;5029779;28;1971;-67
2023/05/27 05:09:52;;;;;;;;;;;;;;;;;;5029931;28;1200;-66
2023/05/27 05:12:18;;;;;;;;;;;;;;;;;;5029426;28;829;-66
2023/05/27 05:14:43;;;;;;;;;;;;;;;;;;5031546;28;892;-67
2023/05/27 05:17:08;;;;;;;;;;;;;;;;;;5029698;28;1234;-66
2023/05/27 05:19:33;;;;;;;;;;;;;;;;;;5030759;28;1245;-66
2023/05/27 05:21:59;;;;;;;;;;;;;;;;;;5034695;28;853;-67
2023/05/27 05:24:24;;;;;;;;;;;;;;;;;;5032905;28;1228;-67
2023/05/27 05:26:50;;;;;;;;;;;;;;;;;;5032898;28;1960;-68
2023/05/27 05:29:15;;;;;;;;;;;;;;;;;;5032762;28;858;-68
2023/05/27 05:31:41;;;;;;;;;;;;;;;;;;5032596;28;830;-68
2023/05/27 05:34:06;;;;;;;;;;;;;;;;;;5034115;28;837;-68
2023/05/27 05:36:32;;;;;;;;;;;;;;;;;;5034264;28;825;-68
2023/05/27 05:38:58;;;;;;;;;;;;;;;;;;5034193;28;926;-69
2023/05/27 05:41:23;;;;;;;;;;;;;;;;;;5033391;28;884;-70
2023/05/27 05:43:48;;;;;;;;;;;;;;;;;;5032398;28;1138;-68
2023/05/27 05:46:14;;;;;;;;;;;;;;;;;;5034538;28;864;-68
2023/05/27 05:48:39;;;;;;;;;;;;;;;;;;5032704;28;1967;-68
2023/05/27 05:51:04;;;;;;;;;;;;;;;;;;5032778;28;1285;-68
2023/05/27 05:53:31;;;;;;;;;;;;;;;;;;5073657;28;912;-68
2023/05/27 05:55:57;;;;;;;;;;;;;;;;;;5074348;28;796;-68
2023/05/27 05:58:22;;;;;;;;;;;;;;;;;;5073508;28;881;-68
2023/05/27 06:00:47;;;;;;;;;;;;;;;;;;5073839;28;912;-68
2023/05/27 06:03:13;;;;;;;;;;;;;;;;;;5073252;28;840;-68
2023/05/27 06:05:38;;;;;;;;;;;;;;;;;;5073546;28;892;-68
2023/05/27 06:08:03;;;;;;;;;;;;;;;;;;5073516;28;1910;-68
2023/05/27 06:10:29;;;;;;;;;;;;;;;;;;5073037;28;840;-67
2023/05/27 06:12:54;;;;;;;;;;;;;;;;;;5073423;28;872;-68
2023/05/27 06:15:20;;;;;;;;;;;;;;;;;;5073577;28;892;-67
2023/05/27 06:17:47;;;;;;;;;;;;;;;;;;5072995;28;836;-68
2023/05/27 06:20:12;;;;;;;;;;;;;;;;;;5073142;28;876;-68
2023/05/27 06:22:37;;;;;;;;;;;;;;;;;;5055004;28;1338;-67
2023/05/27 06:25:03;;;;;;;;;;;;;;;;;;5055237;28;820;-67
2023/05/27 06:27:28;;;;;;;;;;;;;;;;;;5073440;28;1905;-67
2023/05/27 06:29:54;;;;;;;;;;;;;;;;;;5055702;28;988;-67
2023/05/27 06:32:19;;;;;;;;;;;;;;;;;;5038113;28;1204;-67
2023/05/27 06:34:45;;;;;;;;;;;;;;;;;;5073976;28;880;-66
2023/05/27 06:37:10;;;;;;;;;;;;;;;;;;5073244;28;892;-67
2023/05/27 06:39:36;;;;;;;;;;;;;;;;;;5073656;28;917;-67
2023/05/27 06:42:01;;;;;;;;;;;;;;;;;;5055318;28;904;-67
2023/05/27 06:44:26;;;;;;;;;;;;;;;;;;5073062;28;913;-67
2023/05/27 06:46:52;;;;;;;;;;;;;;;;;;5072831;28;1967;-67
2023/05/27 06:49:17;;;;;;;;;;;;;;;;;;5072403;28;1014;-67
2023/05/27 06:51:43;;;;;;;;;;;;;;;;;;5072136;28;1165;-68
2023/05/27 06:54:08;;;;;;;;;;;;;;;;;;5072275;28;944;-67
2023/05/27 06:56:33;;;;;;;;;;;;;;;;;;5071930;28;959;-68
2023/05/27 06:58:59;;;;;;;;;;;;;;;;;;5072312;28;865;-69
2023/05/27 07:01:24;;;;;;;;;;;;;;;;;;5072231;28;868;-68
2023/05/27 07:03:50;;;;;;;;;;;;;;;;;;5072505;28;861;-66
2023/05/27 07:06:16;;;;;;;;;;;;;;;;;;5054199;28;1046;-69
2023/05/27 07:08:41;;;;;;;;;;;;;;;;;;5072401;28;1971;-67
2023/05/27 07:11:07;;;;;;;;;;;;;;;;;;5072725;28;900;-67
2023/05/27 07:13:33;;;;;;;;;;;;;;;;;;5053860;28;904;-67
2023/05/27 07:15:58;;;;;;;;;;;;;;;;;;5072675;28;798;-67
2023/05/27 07:18:23;;;;;;;;;;;;;;;;;;5054083;28;860;-68
2023/05/27 07:20:49;;;;;;;;;;;;;;;;;;5053974;28;1326;-67
2023/05/27 07:23:15;;;;;;;;;;;;;;;;;;5054187;28;806;-68
2023/05/27 07:25:40;;;;;;;;;;;;;;;;;;5072045;28;857;-68
2023/05/27 07:28:06;;;;;;;;;;;;;;;;;;5053896;28;1951;-67
2023/05/27 07:30:31;;;;;;;;;;;;;;;;;;5053188;28;1224;-67
2023/05/27 07:32:56;;;;;;;;;;;;;;;;;;5071979;28;951;-67
2023/05/27 07:35:22;;;;;;;;;;;;;;;;;;5037304;28;1231;-67
2023/05/27 07:37:47;;;;;;;;;;;;;;;;;;5053637;28;1266;-67
2023/05/27 07:40:12;;;;;;;;;;;;;;;;;;5071869;28;931;-67
2023/05/27 07:42:38;;;;;;;;;;;;;;;;;;5053664;28;856;-66
2023/05/27 07:45:03;;;;;;;;;;;;;;;;;;5054531;28;1053;-67
2023/05/27 07:47:29;;;;;;;;;;;;;;;;;;5072155;28;1905;-67
2023/05/27 07:49:54;;;;;;;;;;;;;;;;;;5054626;28;927;-67
2023/05/27 07:52:19;;;;;;;;;;;;;;;;;;5053718;28;1491;-68
2023/05/27 07:54:45;;;;;;;;;;;;;;;;;;5054006;28;837;-71
2023/05/27 07:57:10;;;;;;;;;;;;;;;;;;5037671;28;1216;-67
2023/05/27 07:59:35;;;;;;;;;;;;;;;;;;5072043;28;825;-67
2023/05/27 08:02:01;;;;;;;;;;;;;;;;;;5053824;28;706;-66
2023/05/27 08:04:26;;;;;;;;;;;;;;;;;;5071218;28;888;-66
2023/05/27 08:06:51;;;;;;;;;;;;;;;;;;5071223;28;1907;-66
2023/05/27 08:09:17;;;;;;;;;;;;;;;;;;5053227;28;897;-66
2023/05/27 08:11:42;;;;;;;;;;;;;;;;;;5036287;28;1357;-66
2023/05/27 08:14:07;;;;;;;;;;;;;;;;;;5071546;28;1037;-66
2023/05/27 08:16:33;;;;;;;;;;;;;;;;;;5071319;28;910;-66
2023/05/27 08:18:58;;;;;;;;;;;;;;;;;;5070896;28;888;-66
2023/05/27 08:21:23;;;;;;;;;;;;;;;;;;5052891;28;1081;-66
2023/05/27 08:23:48;;;;;;;;;;;;;;;;;;5052858;28;1496;-67
2023/05/27 08:26:14;;;;;;;;;;;;;;;;;;5070848;28;837;-66
2023/05/27 08:28:39;;;;;;;;;;;;;;;;;;5070870;28;1957;-66
2023/05/27 08:31:05;;;;;;;;;;;;;;;;;;5052734;28;817;-68
2023/05/27 08:33:31;;;;;;;;;;;;;;;;;;5035901;28;1268;-66
2023/05/27 08:35:56;;;;;;;;;;;;;;;;;;5071321;28;1298;-67
2023/05/27 08:38:21;;;;;;;;;;;;;;;;;;5071783;28;1010;-67
2023/05/27 08:40:47;;;;;;;;;;;;;;;;;;5073275;28;910;-67
2023/05/27 08:43:12;;;;;;;;;;;;;;;;;;5053739;28;1195;-66
2023/05/27 08:45:40;;;;;;;;;;;;;;;;;;5072105;28;825;-66
2023/05/27 08:48:06;;;;;;;;;;;;;;;;;;5072216;28;1955;-67
2023/05/27 08:50:32;;;;;;;;;;;;;;;;;;5055387;28;1260;-66
2023/05/27 08:52:58;;;;;;;;;;;;;;;;;;5053678;28;1233;-66
2023/05/27 08:55:24;;;;;;;;;;;;;;;;;;5040489;28;1315;-65
2023/05/27 08:57:56;;;;;;;;;;;;;;;;;;5074906;28;1097;-66
2023/05/27 09:00:23;;;;;;;;;;;;;;;;;;5055162;28;1247;-66
2023/05/27 09:02:48;;;;;;;;;;;;;;;;;;5074020;28;833;-67
2023/05/27 09:05:15;;;;;;;;;;;;;;;;;;5040473;28;1365;-67
2023/05/27 09:07:41;;;;;;;;;;;;;;;;;;5075102;28;1965;-67
2023/05/27 09:10:07;;;;;;;;;;;;;;;;;;5075367;28;865;-66
2023/05/27 09:12:33;;;;;;;;;;;;;;;;;;5074649;28;790;-66
2023/05/27 09:14:58;;;;;;;;;;;;;;;;;;5057241;28;841;-66
2023/05/27 09:17:24;;;;;;;;;;;;;;;;;;5075511;28;852;-66
2023/05/27 09:19:50;;;;;;;;;;;;;;;;;;5074878;28;821;-66
2023/05/27 09:22:22;;;;;;;;;;;;;;;;;;5074828;28;849;-66
2023/05/27 09:24:48;;;;;;;;;;;;;;;;;;5074113;28;803;-67
2023/05/27 09:27:13;;;;;;;;;;;;;;;;;;5056706;28;1963;-66
2023/05/27 09:29:40;;;;;;;;;;;;;;;;;;5055939;28;896;-67
2023/05/27 09:32:07;;;;;;;;;;;;;;;;;;5056529;28;1342;-66
2023/05/27 09:34:38;;;;;;;;;;;;;;;;;;5074272;28;868;-65
2023/05/27 09:37:03;;;;;;;;;;;;;;;;;;5075136;28;856;-66
2023/05/27 09:39:28;;;;;;;;;;;;;;;;;;5057539;28;1003;-65
2023/05/27 09:41:55;;;;;;;;;;;;;;;;;;5075373;28;1007;-66
2023/05/27 09:44:22;;;;;;;;;;;;;;;;;;5056944;28;1215;-67
2023/05/27 09:46:52;;;;;;;;;;;;;;;;;;5075269;28;1090;-66
2023/05/27 09:49:19;;;;;;;;;;;;;;;;;;5056902;28;1232;-67
2023/05/27 09:51:45;;;;;;;;;;;;;;;;;;5056445;28;1429;-65
2023/05/27 09:54:16;;;;;;;;;;;;;;;;;;5075085;28;999;-66
2023/05/27 09:56:41;;;;;;;;;;;;;;;;;;5075391;28;927;-64
2023/05/27 09:59:07;;;;;;;;;;;;;;;;;;5056876;28;1328;-64
2023/05/27 10:01:33;;;;;;;;;;;;;;;;;;5040441;28;834;-65
2023/05/27 10:03:59;;;;;;;;;;;;;;;;;;5056230;28;931;-65
2023/05/27 10:06:25;;;;;;;;;;;;;;;;;;5072661;28;888;-65
2023/05/27 10:08:55;;;;;;;;;;;;;;;;;;5055128;28;1918;-65
2023/05/27 10:11:21;;;;;;;;;;;;;;;;;;5056250;28;864;-65
2023/05/27 10:13:46;;;;;;;;;;;;;;;;;;5055678;28;892;-65
2023/05/27 10:16:19;;;;;;;;;;;;;;;;;;5056419;28;935;-65
2023/05/27 10:18:44;;;;;;;;;;;;;;;;;;5039393;28;1426;-65
2023/05/27 10:21:09;;;;;;;;;;;;;;;;;;5055575;28;848;-65
2023/05/27 10:23:34;;;;;;;;;;;;;;;;;;5051702;28;841;-65
2023/05/27 10:26:07;;;;;;;;;;;;;;;;;;5073364;28;813;-65
2023/05/27 10:28:36;;;;;;;;;;;;;;;;;;5038424;28;2268;-65
2023/05/27 10:31:08;;;;;;;;;;;;;;;;;;5055371;28;1453;-65
2023/05/27 10:33:38;;;;;;;;;;;;;;;;;;5072784;28;894;-65
2023/05/27 10:36:07;;;;;;;;;;;;;;;;;;5074146;28;876;-66
2023/05/27 10:38:32;;;;;;;;;;;;;;;;;;5055507;28;1180;-66
2023/05/27 10:41:02;;;;;;;;;;;;;;;;;;5055912;28;1200;-66
2023/05/27 10:43:29;;;;;;;;;;;;;;;;;;5073478;28;821;-66
2023/05/27 10:46:04;;;;;;;;;;;;;;;;;;5055802;28;1347;-66
2023/05/27 10:48:30;;;;;;;;;;;;;;;;;;5073461;28;1948;-66
2023/05/27 10:50:57;;;;;;;;;;;;;;;;;;5072991;28;995;-65
2023/05/27 10:53:22;;;;;;;;;;;;;;;;;;5072851;28;2114;-65
2023/05/27 10:55:51;;;;;;;;;;;;;;;;;;5073127;28;786;-65
2023/05/27 10:58:17;;;;;;;;;;;;;;;;;;5054414;28;861;-65
2023/05/27 11:00:44;;;;;;;;;;;;;;;;;;5073401;28;853;-66
2023/05/27 11:03:25;;;;;;;;;;;;;;;;;;5072570;28;990;-66
2023/05/27 11:06:01;;;;;;;;;;;;;;;;;;5072426;28;895;-66
2023/05/27 11:08:26;;;;;;;;;;;;;;;;;;5038396;28;1967;-67
2023/05/27 11:10:57;;;;;;;;;;;;;;;;;;5054331;28;1275;-68
2023/05/27 11:13:28;;;;;;;;;;;;;;;;;;5053841;28;1299;-68
2023/05/27 11:15:54;;;;;;;;;;;;;;;;;;5072369;28;995;-68
2023/05/27 11:18:19;;;;;;;;;;;;;;;;;;5071788;28;865;-67
2023/05/27 11:20:46;;;;;;;;;;;;;;;;;;5072802;28;836;-67
2023/05/27 11:23:12;;;;;;;;;;;;;;;;;;5072124;28;892;-67
2023/05/27 11:25:41;;;;;;;;;;;;;;;;;;5053955;28;1174;-67
2023/05/27 11:28:13;;;;;;;;;;;;;;;;;;5071948;28;1902;-67
2023/05/27 11:30:38;;;;;;;;;;;;;;;;;;5072381;28;971;-67
2023/05/27 11:33:04;;;;;;;;;;;;;;;;;;5054070;28;808;-67
2023/05/27 11:35:30;;;;;;;;;;;;;;;;;;5053860;28;849;-67
2023/05/27 11:37:57;;;;;;;;;;;;;;;;;;5073138;28;991;-67
2023/05/27 11:40:22;;;;;;;;;;;;;;;;;;5038382;28;1557;-68
2023/05/27 11:42:47;;;;;;;;;;;;;;;;;;5072551;28;891;-67
2023/05/27 11:45:16;;;;;;;;;;;;;;;;;;5054168;28;1320;-68
2023/05/27 11:47:42;;;;;;;;;;;;;;;;;;5072392;28;1926;-67
2023/05/27 11:50:08;;;;;;;;;;;;;;;;;;5072168;28;884;-67
2023/05/27 11:52:33;;;;;;;;;;;;;;;;;;5072634;28;1008;-67
2023/05/27 11:54:58;;;;;;;;;;;;;;;;;;5072513;28;939;-67
2023/05/27 11:57:24;;;;;;;;;;;;;;;;;;5073219;28;888;-66
2023/05/27 11:59:49;;;;;;;;;;;;;;;;;;5072407;28;865;-66
2023/05/27 12:02:14;;;;;;;;;;;;;;;;;;5072159;28;1070;-66
2023/05/27 12:04:40;;;;;;;;;;;;;;;;;;5072534;28;848;-66
2023/05/27 12:07:09;;;;;;;;;;;;;;;;;;5054130;28;1902;-66
2023/05/27 12:09:34;;;;;;;;;;;;;;;;;;5072407;28;848;-67
2023/05/27 12:12:00;;;;;;;;;;;;;;;;;;5072435;28;861;-67
2023/05/27 12:14:25;;;;;;;;;;;;;;;;;;5053806;28;880;-67
2023/05/27 12:16:51;;;;;;;;;;;;;;;;;;5037537;28;1228;-67
2023/05/27 12:19:16;;;;;;;;;;;;;;;;;;5036592;28;1318;-67
2023/05/27 12:21:42;;;;;;;;;;;;;;;;;;5072347;28;821;-67
2023/05/27 12:24:07;;;;;;;;;;;;;;;;;;5037325;28;1311;-67
2023/05/27 12:26:32;;;;;;;;;;;;;;;;;;5053555;28;1449;-66
2023/05/27 12:28:58;;;;;;;;;;;;;;;;;;5072151;28;1894;-67
2023/05/27 12:31:24;;;;;;;;;;;;;;;;;;5075809;28;942;-67
2023/05/27 12:33:49;;;;;;;;;;;;;;;;;;5041180;28;1314;-67
2023/05/27 12:36:15;;;;;;;;;;;;;;;;;;5057380;28;1137;-67
2023/05/27 12:38:40;;;;;;;;;;;;;;;;;;5058027;28;1198;-67
2023/05/27 12:41:05;;;;;;;;;;;;;;;;;;5075451;28;931;-68
2023/05/27 12:43:31;;;;;;;;;;;;;;;;;;5057707;28;1179;-67
2023/05/27 12:45:56;;;;;;;;;;;;;;;;;;5075584;28;849;-67
2023/05/27 12:48:22;;;;;;;;;;;;;;;;;;5074822;28;1890;-67
2023/05/27 12:50:48;;;;;;;;;;;;;;;;;;5057389;28;1345;-67
2023/05/27 12:53:13;;;;;;;;;;;;;;;;;;5074998;28;1239;-66
2023/05/27 12:55:38;;;;;;;;;;;;;;;;;;5056973;28;1199;-67
2023/05/27 12:58:04;;;;;;;;;;;;;;;;;;5057893;28;892;-67
2023/05/27 13:00:31;;;;;;;;;;;;;;;;;;5057461;28;1248;-67
2023/05/27 13:02:56;;;;;;;;;;;;;;;;;;5075331;28;896;-67
2023/05/27 13:05:21;;;;;;;;;;;;;;;;;;5074761;28;857;-67
2023/05/27 13:07:55;;;;;;;;;;;;;;;;;;5041072;28;1906;-66
2023/05/27 13:10:21;;;;;;;;;;;;;;;;;;5074760;28;825;-67
2023/05/27 13:12:47;;;;;;;;;;;;;;;;;;5075746;28;817;-67
2023/05/27 13:15:12;;;;;;;;;;;;;;;;;;5074908;28;821;-66
2023/05/27 13:17:37;;;;;;;;;;;;;;;;;;5056078;28;1089;-67
2023/05/27 13:20:04;;;;;;;;;;;;;;;;;;5074489;28;861;-66
2023/05/27 13:22:29;;;;;;;;;;;;;;;;;;5056444;28;1246;-66
2023/05/27 13:24:55;;;;;;;;;;;;;;;;;;5074516;28;926;-66
2023/05/27 13:27:21;;;;;;;;;;;;;;;;;;5056253;28;1898;-66
2023/05/27 13:29:46;;;;;;;;;;;;;;;;;;5075362;28;798;-68
2023/05/27 13:32:11;;;;;;;;;;;;;;;;;;5057024;28;868;-67
2023/05/27 13:34:37;;;;;;;;;;;;;;;;;;5056948;28;1200;-67
2023/05/27 13:37:02;;;;;;;;;;;;;;;;;;5057807;28;856;-67
2023/05/27 13:39:28;;;;;;;;;;;;;;;;;;5074679;28;1000;-66
2023/05/27 13:41:53;;;;;;;;;;;;;;;;;;5056747;28;1153;-66
2023/05/27 13:44:18;;;;;;;;;;;;;;;;;;5074309;28;888;-67
2023/05/27 13:46:43;;;;;;;;;;;;;;;;;;5074783;28;991;-67
2023/05/27 13:49:09;;;;;;;;;;;;;;;;;;5074128;28;1901;-66
2023/05/27 13:51:42;;;;;;;;;;;;;;;;;;5055804;28;1277;-66
2023/05/27 13:54:07;;;;;;;;;;;;;;;;;;5074296;28;817;-67
2023/05/27 13:56:33;;;;;;;;;;;;;;;;;;5055710;28;1199;-67
2023/05/27 13:58:58;;;;;;;;;;;;;;;;;;5056100;28;790;-66
2023/05/27 14:01:24;;;;;;;;;;;;;;;;;;5055458;28;1112;-66
2023/05/27 14:03:49;;;;;;;;;;;;;;;;;;5074084;28;975;-66
2023/05/27 14:06:15;;;;;;;;;;;;;;;;;;5073661;28;805;-64
2023/05/27 14:08:40;;;;;;;;;;;;;;;;;;5055546;28;1902;-65
2023/05/27 14:11:06;;;;;;;;;;;;;;;;;;5073688;28;817;-65
2023/05/27 14:13:31;;;;;;;;;;;;;;;;;;5072565;28;837;-65
2023/05/27 14:15:57;;;;;;;;;;;;;;;;;;5073594;28;963;-66
2023/05/27 14:18:22;;;;;;;;;;;;;;;;;;5072696;28;825;-66
2023/05/27 14:20:49;;;;;;;;;;;;;;;;;;5073315;28;869;-66
2023/05/27 14:23:16;;;;;;;;;;;;;;;;;;5072901;28;967;-66
2023/05/27 14:25:41;;;;;;;;;;;;;;;;;;5073262;28;754;-66
2023/05/27 14:28:06;;;;;;;;;;;;;;;;;;5073269;28;1905;-66
2023/05/27 14:30:36;;;;;;;;;;;;;;;;;;5054817;28;900;-66
2023/05/27 14:33:02;;;;;;;;;;;;;;;;;;5073193;28;833;-67
2023/05/27 14:35:28;;;;;;;;;;;;;;;;;;5054893;28;1157;-67
2023/05/27 14:37:53;;;;;;;;;;;;;;;;;;5072869;28;852;-66
2023/05/27 14:40:18;;;;;;;;;;;;;;;;;;5072661;28;802;-67
2023/05/27 14:42:44;;;;;;;;;;;;;;;;;;5055369;28;960;-66
2023/05/27 14:45:10;;;;;;;;;;;;;;;;;;5055048;28;1002;-66
2023/05/27 14:47:35;;;;;;;;;;;;;;;;;;5054614;28;1961;-67
2023/05/27 14:50:01;;;;;;;;;;;;;;;;;;5055075;28;1109;-66
2023/05/27 14:52:26;;;;;;;;;;;;;;;;;;5071459;28;1227;-67
2023/05/27 14:54:51;;;;;;;;;;;;;;;;;;5055588;28;1290;-67
2023/05/27 14:57:17;;;;;;;;;;;;;;;;;;5055235;28;885;-67
2023/05/27 14:59:42;;;;;;;;;;;;;;;;;;5073729;28;864;-66
2023/05/27 15:02:07;;;;;;;;;;;;;;;;;;5055589;28;1317;-67
2023/05/27 15:04:33;;;;;;;;;;;;;;;;;;5072886;28;880;-66
2023/05/27 15:06:58;;;;;;;;;;;;;;;;;;5038947;28;1248;-66
2023/05/27 15:09:24;;;;;;;;;;;;;;;;;;5054912;28;1973;-67
2023/05/27 15:11:49;;;;;;;;;;;;;;;;;;5073647;28;928;-66
2023/05/27 15:14:14;;;;;;;;;;;;;;;;;;5054446;28;1362;-66
2023/05/27 15:16:39;;;;;;;;;;;;;;;;;;5054214;28;1461;-66
2023/05/27 15:19:05;;;;;;;;;;;;;;;;;;5054611;28;857;-66
2023/05/27 15:21:31;;;;;;;;;;;;;;;;;;5072240;28;766;-66
2023/05/27 15:23:56;;;;;;;;;;;;;;;;;;5054582;28;899;-66
2023/05/27 15:26:22;;;;;;;;;;;;;;;;;;5071353;28;896;-67
2023/05/27 15:28:47;;;;;;;;;;;;;;;;;;5071733;28;1959;-66
2023/05/27 15:31:12;;;;;;;;;;;;;;;;;;5072079;28;900;-67
2023/05/27 15:33:37;;;;;;;;;;;;;;;;;;5036532;28;1232;-67
2023/05/27 15:36:03;;;;;;;;;;;;;;;;;;5071750;28;904;-66
2023/05/27 15:38:28;;;;;;;;;;;;;;;;;;5053233;28;1323;-66
2023/05/27 15:40:54;;;;;;;;;;;;;;;;;;5037126;28;1101;-67
2023/05/27 15:43:20;;;;;;;;;;;;;;;;;;5071366;28;805;-66
2023/05/27 15:45:46;;;;;;;;;;;;;;;;;;5054261;28;813;-66
2023/05/27 15:48:11;;;;;;;;;;;;;;;;;;5071925;28;1955;-66
2023/05/27 15:50:37;;;;;;;;;;;;;;;;;;5070892;28;900;-66
2023/05/27 15:53:03;;;;;;;;;;;;;;;;;;5071175;28;1089;-66
2023/05/27 15:55:28;;;;;;;;;;;;;;;;;;5071215;28;888;-66
2023/05/27 15:57:53;;;;;;;;;;;;;;;;;;5053684;28;908;-67
2023/05/27 16:00:19;;;;;;;;;;;;;;;;;;5071460;28;900;-66
2023/05/27 16:02:44;;;;;;;;;;;;;;;;;;5053859;28;907;-66
2023/05/27 16:05:12;;;;;;;;;;;;;;;;;;5053771;28;1409;-66
2023/05/27 16:07:39;;;;;;;;;;;;;;;;;;5053352;28;1967;-66
2023/05/27 16:10:05;;;;;;;;;;;;;;;;;;5036939;28;1538;-66
2023/05/27 16:12:31;;;;;;;;;;;;;;;;;;5071014;28;798;-66
2023/05/27 16:14:56;;;;;;;;;;;;;;;;;;5037009;28;1490;-66
2023/05/27 16:17:21;;;;;;;;;;;;;;;;;;5071304;28;893;-66
2023/05/27 16:19:52;;;;;;;;;;;;;;;;;;5071618;28;629;-66
2023/05/27 16:22:18;;;;;;;;;;;;;;;;;;5035122;28;1239;-66
2023/05/27 16:24:43;;;;;;;;;;;;;;;;;;5071049;28;900;-66
2023/05/27 16:27:09;;;;;;;;;;;;;;;;;;5053568;28;1889;-66
2023/05/27 16:29:34;;;;;;;;;;;;;;;;;;5071054;28;912;-66
2023/05/27 16:31:59;;;;;;;;;;;;;;;;;;5053231;28;1200;-67
2023/05/27 16:34:24;;;;;;;;;;;;;;;;;;5036965;28;1406;-66
2023/05/27 16:36:50;;;;;;;;;;;;;;;;;;5072315;28;817;-66
2023/05/27 16:39:15;;;;;;;;;;;;;;;;;;5055082;28;1055;-66
2023/05/27 16:41:41;;;;;;;;;;;;;;;;;;5054088;28;901;-66
2023/05/27 16:44:06;;;;;;;;;;;;;;;;;;5054316;28;1239;-67
2023/05/27 16:46:32;;;;;;;;;;;;;;;;;;5052776;28;1203;-65
2023/05/27 16:48:58;;;;;;;;;;;;;;;;;;5053792;28;1967;-66
2023/05/27 16:51:23;;;;;;;;;;;;;;;;;;5053366;28;845;-68
2023/05/27 16:53:48;;;;;;;;;;;;;;;;;;5072155;28;1303;-66
2023/05/27 16:56:14;;;;;;;;;;;;;;;;;;5072323;28;947;-65
2023/05/27 16:58:39;;;;;;;;;;;;;;;;;;5071655;28;849;-65
2023/05/27 17:01:05;;;;;;;;;;;;;;;;;;5071822;28;932;-65
2023/05/27 17:03:31;;;;;;;;;;;;;;;;;;5053776;28;888;-65
2023/05/27 17:05:58;;;;;;;;;;;;;;;;;;5054176;28;1205;-65